Big Bear Lake, CA (92315)

7:52 PM PST on February 07, 2016 (GMT -0800)
Big Bear Lake | | Change Station
CLOSE
Current Station
Personal Weather Station
Location: Big Bear Lake, CA
Elevation: 6923 ft
Nearby Weather Stations
Active Advisory: High Wind Warning

Elev 6923 ft 34.24 °N, 116.90 °W | Updated 11 minutes ago

Clear
Clear
38.9 °F
Feels Like 39 °F
N
0.0
Wind Variable Wind from ESE

Today
High -- | Low -- °F
--% Chance of Precip.
Yesterday
High -- | Low -- °F
Precip. -- in
Pressure 30.44 in
Visibility 10.0 miles
Clouds Clear
Windchill 39 °F
Dew Point 14 °F
Humidity 36%
Rainfall 0.00 in
Snow Depth Not available.
6:40 AM 5:23 PM
Waning Crescent, 0% visible
METAR KL35 080335Z AUTO 07005KT 10SM CLR 03/M11 A3044 RMK AO2
Pressure 30.44 in
Visibility 10.0 miles
Clouds Clear
Windchill 39 °F
Dew Point 14 °F
Humidity 36%
Rainfall 0.00 in
Snow Depth Not available.
6:40 AM 5:23 PM
Waning Crescent, 0% visible
METAR KL35 080335Z AUTO 07005KT 10SM CLR 03/M11 A3044 RMK AO2

10-Day Weather Forecast

Almanac

Astronomy

Feb. 07, 2016 Rise Set
Actual Time
Civil Twilight
Nautical Twilight
Astronomical Twilight
Moon
Length of Visible Light
Length of Day
Tomorrow will be .
, % of the Moon is Illuminated

Today's Extremes

State Highs State Lows

Community

WunderPhotos

Upload Photos

1,891,373 photos uploaded!

WunderBlog® & News

Nearby

Air Quality

  Air Quality AQ Index Pollutant
Not available.

Snow Depth

Station Depth Elevation

Earthquake Activity

City Distance Mag. Time & Date
Minimum magnitude displayed is 2.5.

Coastal Water Temperatures

Place Temperature

Stations

Nearby Weather Stations

Station Location Temp. Windchill Dew Point Humidity Wind Precip. Elev Updated Type
                   

Watches & Warnings

High Wind Warning
Issued: 12:56 PM PST Feb. 7, 2016 – National Weather Service

... High Wind Warning remains in effect until 4 PM PST Monday...

* winds... east to northeast 30 to 40 mph with gusts 55 to 65 mph.
Locally higher gusts will be possible.

* Timing... winds increasing through this evening... peaking early
Monday morning... then weakening into Tuesday.

* Location... along the coastal mountain slopes and foothills and
below favored passes and canyons.

* Visibility... locally reduced in blowing dust.

* Impacts... strong cross winds will be a potential hazard for high
profile vehicles. Broken tree limbs and other unsecured yard and
construction site debris may be blown about and impede traffic
on roadways.

* Outlook... winds will weaken below high wind criteria late Monday
afternoon... however advisory strength winds may continue in some
areas through Tuesday morning.

Precautionary/preparedness actions...

A High Wind Warning means a hazardous high wind event is expected
or occurring. Sustained wind speeds of at least 40 mph or gusts
of 58 mph or more can lead to property damage.